Time;durP1;ratioP1;P1;durP2;ratioP2;P2;SDS_P1;SDS_P2;PMS_P1;PMS_P2;Temp;Humidity;BMP_temperature;BMP_pressure;BME280_temperature;BME280_humidity;BME280_pressure;Samples;Min_cycle;Max_cycle;Signal;HPM_P1;HPM_P2
2021/04/27 00:01:36;;;;;;;5.77;3.40;;;;;;;5.76;41.98;100294.38;10272280;28;20243;-75
2021/04/27 00:06:38;;;;;;;4.33;3.80;;;;;;;5.80;41.91;100295.91;10272098;28;20246;-72
2021/04/27 00:11:41;;;;;;;5.07;3.27;;;;;;;5.74;41.99;100294.47;10271432;28;20228;-75
2021/04/27 00:16:44;;;;;;;6.27;3.23;;;;;;;5.66;42.07;100289.63;10299515;28;20234;-75
2021/04/27 00:21:46;;;;;;;4.13;2.83;;;;;;;5.62;42.20;100292.56;10314290;28;20348;-73
2021/04/27 00:26:48;;;;;;;4.30;3.50;;;;;;;5.55;42.53;100286.75;10309936;28;20615;-73
2021/04/27 00:31:51;;;;;;;5.43;3.57;;;;;;;5.46;42.47;100276.69;10311143;28;20246;-73
2021/04/27 00:36:53;;;;;;;5.20;3.50;;;;;;;5.41;42.37;100281.44;10312940;28;20734;-74
2021/04/27 00:41:55;;;;;;;5.07;2.80;;;;;;;5.41;42.30;100276.97;10310467;28;20246;-73
2021/04/27 00:46:57;;;;;;;4.27;2.83;;;;;;;5.33;42.37;100281.91;10308491;28;20899;-75
2021/04/27 00:52:01;;;;;;;4.03;3.10;;;;;;;5.21;42.88;100282.63;10311920;28;20641;-72
2021/04/27 00:57:03;;;;;;;5.00;2.97;;;;;;;5.20;42.87;100278.25;10314393;28;20247;-74
2021/04/27 01:02:06;;;;;;;5.23;3.30;;;;;;;5.14;43.10;100276.81;10311436;28;20331;-75
2021/04/27 01:07:10;;;;;;;4.77;3.13;;;;;;;5.06;43.35;100271.09;10294351;28;20230;-74
2021/04/27 01:12:19;;;;;;;5.47;3.20;;;;;;;4.92;43.79;100276.38;10309868;28;20758;-74
2021/04/27 01:17:24;;;;;;;3.90;2.83;;;;;;;4.86;43.97;100266.09;10308422;28;20245;-74
2021/04/27 01:22:41;;;;;;;3.33;3.03;;;;;;;4.78;44.35;100263.88;10309457;28;20613;-74
2021/04/27 01:27:44;;;;;;;5.77;3.10;;;;;;;4.73;44.25;100268.59;10292597;28;20606;-74
2021/04/27 01:32:46;;;;;;;3.57;3.27;;;;;;;4.67;44.17;100263.63;10311488;28;20245;-76
2021/04/27 01:37:49;;;;;;;5.22;3.40;;;;;;;4.59;44.22;100264.94;10311068;28;20805;-73
2021/04/27 01:42:53;;;;;;;2.77;2.40;;;;;;;4.58;43.81;100255.25;10293912;28;20235;-75
2021/04/27 01:47:55;;;;;;;5.53;3.07;;;;;;;4.52;44.15;100252.91;10289478;28;20333;-75
2021/04/27 01:52:58;;;;;;;4.68;3.30;;;;;;;4.47;44.05;100256.78;10291306;28;20314;-74
2021/04/27 01:58:01;;;;;;;3.33;3.03;;;;;;;4.45;44.05;100254.25;10289133;28;20238;-74
2021/04/27 02:03:04;;;;;;;4.33;2.63;;;;;;;4.35;44.02;100245.91;10309320;28;20318;-75
2021/04/27 02:08:12;;;;;;;5.03;2.87;;;;;;;4.34;44.49;100246.03;10309133;28;20238;-75
2021/04/27 02:13:19;;;;;;;4.50;3.00;;;;;;;4.29;44.18;100242.75;10253187;28;20685;-73
2021/04/27 02:18:43;;;;;;;4.70;2.97;;;;;;;4.24;44.33;100247.47;10269140;28;20329;-72
2021/04/27 02:23:49;;;;;;;3.67;2.67;;;;;;;4.19;44.39;100242.41;10266807;28;20235;-73
2021/04/27 02:28:54;;;;;;;3.97;2.87;;;;;;;4.11;44.52;100237.56;10285235;28;20243;-74
2021/04/27 02:33:57;;;;;;;3.57;3.03;;;;;;;4.05;44.70;100231.72;10266329;28;20594;-74
2021/04/27 02:38:59;;;;;;;5.87;3.10;;;;;;;3.97;44.69;100225.97;10283003;28;20750;-73
2021/04/27 02:44:04;;;;;;;3.00;2.70;;;;;;;3.98;44.60;100225.00;10265851;28;20325;-74
2021/04/27 02:49:06;;;;;;;3.87;2.67;;;;;;;4.00;44.86;100213.34;10269627;28;20235;-75
2021/04/27 02:54:13;;;;;;;4.30;2.53;;;;;;;3.82;45.02;100225.88;10267570;28;20858;-74
2021/04/27 02:59:17;;;;;;;4.13;2.67;;;;;;;3.68;45.53;100210.72;10280315;28;20235;-73
2021/04/27 03:04:20;;;;;;;4.37;2.97;;;;;;;3.58;46.26;100208.63;10281987;28;20239;-74
2021/04/27 03:09:43;;;;;;;3.43;2.60;;;;;;;3.46;47.21;100212.84;10266544;28;20239;-74
2021/04/27 03:14:46;;;;;;;6.03;3.47;;;;;;;3.45;47.23;100209.28;10275947;28;20231;-74
2021/04/27 03:19:53;;;;;;;7.33;3.80;;;;;;;3.38;47.81;100210.59;10320117;28;20288;-75
2021/04/27 03:25:01;;;;;;;6.27;3.83;;;;;;;3.19;48.31;100215.16;10303272;28;20236;-74
2021/04/27 03:30:08;;;;;;;5.27;3.80;;;;;;;3.10;48.90;100215.63;10305182;28;20273;-74
2021/04/27 03:35:13;;;;;;;3.97;3.00;;;;;;;3.03;48.62;100205.34;10305505;28;20735;-74
2021/04/27 03:40:16;;;;;;;5.27;3.63;;;;;;;3.07;48.84;100211.34;10303825;28;20386;-74
2021/04/27 03:45:22;;;;;;;5.37;3.80;;;;;;;3.06;48.85;100205.19;10308337;28;20235;-75
2021/04/27 03:50:24;;;;;;;7.03;4.23;;;;;;;3.08;48.85;100206.91;10305869;28;20231;-74
2021/04/27 03:55:53;;;;;;;6.63;3.50;;;;;;;2.98;48.59;100204.72;10306895;28;20254;-73
2021/04/27 04:00:56;;;;;;;5.43;3.20;;;;;;;2.97;48.48;100202.16;10305551;28;20292;-74
2021/04/27 04:05:58;;;;;;;5.27;3.57;;;;;;;2.95;48.47;100209.34;10318781;28;20238;-74
2021/04/27 04:11:19;;;;;;;5.30;3.97;;;;;;;2.91;48.94;100210.41;10304730;28;20242;-74
2021/04/27 04:16:22;;;;;;;7.40;3.77;;;;;;;2.87;49.71;100203.56;10278727;28;20239;-74
2021/04/27 04:21:25;;;;;;;6.50;4.37;;;;;;;2.90;49.87;100209.56;10266962;28;20235;-75
2021/04/27 04:26:33;;;;;;;7.13;4.57;;;;;;;2.98;49.90;100206.53;10286403;28;20739;-74
2021/04/27 04:32:13;;;;;;;5.63;4.40;;;;;;;3.06;50.08;100213.13;10218022;28;21549;-75
2021/04/27 04:37:34;;;;;;;5.77;4.57;;;;;;;3.19;49.71;100215.16;10277816;28;20239;-74
2021/04/27 04:43:03;;;;;;;6.03;4.40;;;;;;;3.18;49.72;100214.31;10262337;28;20297;-74
2021/04/27 04:48:24;;;;;;;9.87;5.00;;;;;;;3.24;49.99;100213.97;10270355;28;20243;-73
2021/04/27 04:53:53;;;;;;;10.50;6.00;;;;;;;3.37;50.55;100218.63;10270753;28;20828;-74
2021/04/27 04:58:55;;;;;;;8.23;5.70;;;;;;;3.45;50.95;100219.91;10270318;28;20370;-74
2021/04/27 05:03:59;;;;;;;14.13;5.80;;;;;;;3.51;50.85;100218.72;10270390;28;20267;-74
2021/04/27 05:09:19;;;;;;;8.43;5.10;;;;;;;3.71;50.75;100223.81;10271214;28;20712;-74
2021/04/27 05:14:31;;;;;;;8.93;5.93;;;;;;;3.78;50.81;100223.47;10284158;28;20405;-74
2021/04/27 05:19:34;;;;;;;10.23;5.57;;;;;;;3.92;50.02;100236.84;10316056;28;20239;-74
2021/04/27 05:24:38;;;;;;;6.87;5.13;;;;;;;4.01;49.53;100240.81;10313195;28;20238;-74
2021/04/27 05:29:49;;;;;;;6.47;4.47;;;;;;;4.18;49.23;100233.59;10330614;28;20722;-74
2021/04/27 05:34:52;;;;;;;5.80;4.47;;;;;;;4.43;49.55;100241.97;10312722;28;20238;-75
2021/04/27 05:39:54;;;;;;;4.87;4.00;;;;;;;4.54;47.06;100244.88;10315280;28;20250;-74
2021/04/27 05:44:56;;;;;;;5.07;3.00;;;;;;;4.70;44.76;100250.16;10314141;28;20242;-74
2021/04/27 05:49:59;;;;;;;5.93;3.00;;;;;;;4.77;43.65;100248.81;10315236;28;20243;-74
2021/04/27 05:55:01;;;;;;;3.77;2.73;;;;;;;4.80;44.16;100252.19;10313742;28;20285;-74
2021/04/27 06:00:06;;;;;;;5.70;3.07;;;;;;;5.00;43.70;100240.38;10315628;28;20250;-74
2021/04/27 06:05:14;;;;;;;5.27;2.90;;;;;;;5.26;43.74;100245.91;10312822;28;20327;-73
2021/04/27 06:10:16;;;;;;;5.27;2.80;;;;;;;5.44;43.48;100236.81;10312745;28;20246;-73
2021/04/27 06:15:18;;;;;;;4.30;2.63;;;;;;;5.71;43.84;100238.69;10295768;28;20247;-74
2021/04/27 06:20:21;;;;;;;7.57;3.57;;;;;;;6.06;43.21;100235.56;10273643;28;20239;-74
2021/04/27 06:25:23;;;;;;;5.53;3.00;;;;;;;6.33;41.62;100232.94;10270486;28;20247;-74
2021/04/27 06:30:25;;;;;;;3.03;2.58;;;;;;;6.48;41.14;100241.75;10258794;28;20253;-74
2021/04/27 06:35:28;;;;;;;3.03;2.40;;;;;;;6.54;39.69;100233.31;10271681;28;20898;-74
2021/04/27 06:40:31;;;;;;;3.97;2.25;;;;;;;6.75;39.54;100231.03;10271011;28;20243;-74
2021/04/27 06:45:34;;;;;;;5.90;3.03;;;;;;;6.92;39.46;100221.91;10279672;28;20228;-74
2021/04/27 06:50:39;;;;;;;5.18;2.10;;;;;;;7.23;38.23;100221.50;10272297;28;20247;-74
2021/04/27 06:55:41;;;;;;;4.68;2.25;;;;;;;7.42;37.90;100222.88;10287086;28;20235;-74
2021/04/27 07:00:44;;;;;;;1.90;1.73;;;;;;;7.69;37.25;100214.72;10269999;28;20239;-73
2021/04/27 07:05:46;;;;;;;8.52;2.58;;;;;;;8.08;36.73;100208.28;10267345;28;20238;-73
2021/04/27 07:10:49;;;;;;;2.40;1.95;;;;;;;8.22;35.61;100212.63;10270562;28;20634;-74
2021/04/27 07:15:52;;;;;;;2.38;2.03;;;;;;;8.30;35.69;100207.56;10291017;28;20725;-74
2021/04/27 07:20:55;;;;;;;2.42;2.00;;;;;;;8.57;34.97;100196.66;10309763;28;20746;-73
2021/04/27 07:25:57;;;;;;;4.50;2.28;;;;;;;8.46;34.12;100193.06;10310958;28;20230;-73
2021/04/27 07:30:59;;;;;;;3.58;2.38;;;;;;;8.66;37.80;100200.44;10304781;28;20245;-73
2021/04/27 07:36:02;;;;;;;4.50;2.15;;;;;;;8.68;38.37;100187.81;10308314;28;20743;-73
2021/04/27 07:41:04;;;;;;;6.25;2.40;;;;;;;8.69;37.86;100188.66;10309998;28;20255;-75
2021/04/27 07:46:07;;;;;;;3.05;1.90;;;;;;;8.80;36.29;100188.69;10305792;28;20890;-74
2021/04/27 07:51:11;;;;;;;4.70;1.90;;;;;;;8.88;36.57;100186.25;10308769;28;20239;-73
2021/04/27 07:56:13;;;;;;;2.35;1.85;;;;;;;9.12;35.87;100179.97;10316816;28;20723;-73
2021/04/27 08:01:15;;;;;;;2.15;1.90;;;;;;;9.46;35.53;100176.34;10291076;28;20231;-74
2021/04/27 08:06:18;;;;;;;5.82;2.25;;;;;;;9.98;34.24;100171.28;10280827;28;20624;-73
2021/04/27 08:11:20;;;;;;;5.05;2.00;;;;;;;10.39;31.89;100172.38;10289972;28;20243;-73
2021/04/27 08:16:23;;;;;;;4.18;2.25;;;;;;;10.38;32.28;100171.53;10332262;28;20239;-74
2021/04/27 08:21:27;;;;;;;3.38;2.20;;;;;;;10.61;30.54;100168.75;10276544;28;20398;-74
2021/04/27 08:26:30;;;;;;;3.00;1.80;;;;;;;10.65;30.29;100161.31;10282108;28;20240;-74
2021/04/27 08:31:32;;;;;;;2.65;2.08;;;;;;;10.38;30.81;100163.47;10293975;28;20251;-74
2021/04/27 08:36:34;;;;;;;2.40;1.77;;;;;;;11.07;30.06;100151.38;10274827;28;20238;-75
2021/04/27 08:41:38;;;;;;;4.45;1.70;;;;;;;11.15;29.96;100142.69;10273144;28;20231;-74
2021/04/27 08:46:40;;;;;;;1.80;1.70;;;;;;;11.84;28.33;100150.00;10275535;28;20354;-74
2021/04/27 08:51:43;;;;;;;3.63;2.05;;;;;;;11.79;27.54;100147.72;10276151;28;20251;-74
2021/04/27 08:56:58;;;;;;;2.35;1.60;;;;;;;11.66;27.10;100137.22;10273114;28;21504;-76
2021/04/27 09:02:00;;;;;;;2.10;1.70;;;;;;;11.86;27.59;100129.19;10275037;28;20717;-76
2021/04/27 09:07:04;;;;;;;1.90;1.77;;;;;;;12.02;26.36;100132.19;10272713;28;20238;-75
2021/04/27 09:12:08;;;;;;;3.90;2.25;;;;;;;12.33;26.48;100134.78;10272875;28;20243;-75
2021/04/27 09:17:11;;;;;;;2.58;2.17;;;;;;;12.56;26.02;100121.84;10306212;28;20231;-75
2021/04/27 09:22:19;;;;;;;3.92;2.05;;;;;;;12.72;26.54;100122.13;10318449;28;20231;-76
2021/04/27 09:27:29;;;;;;;3.05;1.70;;;;;;;13.03;25.81;100103.91;10312164;28;20357;-75
2021/04/27 09:32:33;;;;;;;2.60;2.10;;;;;;;13.04;26.53;100096.66;10312548;28;20234;-75
2021/04/27 09:37:36;;;;;;;4.72;1.95;;;;;;;13.10;26.21;100103.31;10313112;28;20243;-76
2021/04/27 09:42:38;;;;;;;3.30;2.00;;;;;;;12.80;26.68;100100.69;10312326;28;20246;-75
2021/04/27 09:47:41;;;;;;;2.90;2.10;;;;;;;13.05;26.58;100090.25;10311121;28;20266;-76
2021/04/27 09:52:46;;;;;;;3.17;2.20;;;;;;;13.48;25.40;100088.81;10311784;28;20769;-76
2021/04/27 09:57:50;;;;;;;3.05;2.35;;;;;;;13.95;24.76;100083.25;10310610;28;20603;-76
2021/04/27 10:02:53;;;;;;;3.22;2.20;;;;;;;14.70;25.03;100081.06;10311272;28;20259;-76
2021/04/27 10:07:58;;;;;;;2.88;2.00;;;;;;;14.33;24.24;100073.97;10310604;28;20317;-76
2021/04/27 10:13:01;;;;;;;5.05;2.20;;;;;;;14.48;25.00;100051.81;10311262;28;20254;-74
2021/04/27 10:18:06;;;;;;;3.50;2.25;;;;;;;14.38;24.48;100060.88;10273857;28;20246;-75
2021/04/27 10:23:11;;;;;;;2.63;2.03;;;;;;;15.12;24.62;100053.25;10270122;28;20239;-75
2021/04/27 10:28:13;;;;;;;4.72;2.15;;;;;;;15.33;24.06;100042.00;10261974;28;20390;-75
2021/04/27 10:33:21;;;;;;;4.22;2.50;;;;;;;14.77;24.00;100044.25;10241716;28;20602;-75
2021/04/27 10:38:24;;;;;;;3.88;2.42;;;;;;;15.47;24.51;100033.28;10310861;28;20335;-75
2021/04/27 10:43:37;;;;;;;3.58;2.58;;;;;;;15.71;23.75;100026.22;10284785;28;20374;-75
2021/04/27 10:48:43;;;;;;;4.55;2.75;;;;;;;15.51;23.60;100024.84;10269433;28;20680;-75
2021/04/27 10:54:08;;;;;;;4.43;2.53;;;;;;;15.46;23.68;100014.50;10269077;28;20250;-75
2021/04/27 10:59:11;;;;;;;6.07;2.50;;;;;;;15.51;23.31;100012.13;10270832;28;20243;-75
2021/04/27 11:04:34;;;;;;;3.83;2.22;;;;;;;15.60;23.03;100002.16;10264113;28;20243;-74
2021/04/27 11:09:37;;;;;;;4.15;2.75;;;;;;;16.08;22.92;99995.13;10278904;28;20259;-74
2021/04/27 11:14:55;;;;;;;7.13;3.03;;;;;;;16.06;22.86;99999.84;10268204;28;20245;-75
2021/04/27 11:19:58;;;;;;;3.55;2.65;;;;;;;16.21;23.04;99984.63;10259280;28;20242;-75
2021/04/27 11:25:02;;;;;;;3.33;2.55;;;;;;;17.10;22.75;99971.00;10247699;28;20231;-75
2021/04/27 11:30:07;;;;;;;4.18;3.17;;;;;;;17.29;22.29;99975.19;10268683;28;20238;-75
2021/04/27 11:35:14;;;;;;;3.95;2.33;;;;;;;17.66;22.20;99969.00;10272389;28;20270;-75
2021/04/27 11:40:27;;;;;;;5.28;2.85;;;;;;;18.64;20.88;99962.69;10256029;28;20262;-75
2021/04/27 11:45:31;;;;;;;8.00;2.13;;;;;;;18.98;20.44;99959.44;10259164;28;20250;-75
2021/04/27 11:50:34;;;;;;;4.05;2.55;;;;;;;19.29;19.81;99950.16;10275379;28;20243;-76
2021/04/27 11:55:43;;;;;;;6.18;3.08;;;;;;;18.87;20.44;99943.59;10271348;28;20243;-75
2021/04/27 12:00:48;;;;;;;4.00;2.33;;;;;;;18.86;19.83;99931.00;10276296;28;20255;-75
2021/04/27 12:05:52;;;;;;;7.15;2.90;;;;;;;18.10;21.16;99943.88;10274440;28;20238;-75
2021/04/27 12:11:22;;;;;;;2.63;2.42;;;;;;;18.69;20.20;99927.59;10272846;28;20236;-75
2021/04/27 12:16:27;;;;;;;2.38;2.05;;;;;;;19.11;19.95;99920.63;10254888;28;20261;-75
2021/04/27 12:21:32;;;;;;;3.03;2.42;;;;;;;18.62;20.46;99917.66;10313591;28;20239;-75
2021/04/27 12:26:35;;;;;;;3.03;2.58;;;;;;;18.98;19.45;99924.06;10311413;28;20246;-75
2021/04/27 12:31:37;;;;;;;4.90;3.47;;;;;;;18.43;19.61;99914.50;10311303;28;20242;-75
2021/04/27 12:36:42;;;;;;;3.33;2.10;;;;;;;19.02;20.41;99911.75;10310221;28;20724;-75
2021/04/27 12:41:44;;;;;;;3.85;2.40;;;;;;;19.60;20.23;99898.13;10307683;28;20242;-75
2021/04/27 12:46:48;;;;;;;2.67;2.30;;;;;;;19.42;19.00;99892.28;10312064;28;20242;-75
2021/04/27 12:51:58;;;;;;;2.83;2.55;;;;;;;19.24;19.98;99890.84;10312223;28;20866;-75
2021/04/27 12:57:14;;;;;;;3.97;2.30;;;;;;;19.45;19.47;99881.00;10313479;28;20262;-75
2021/04/27 13:02:17;;;;;;;5.95;2.88;;;;;;;19.24;19.01;99868.22;10318767;28;20254;-75
2021/04/27 13:07:22;;;;;;;4.70;2.50;;;;;;;18.77;19.04;99866.81;10314113;28;20258;-75
2021/04/27 13:12:27;;;;;;;4.43;2.47;;;;;;;18.67;19.83;99883.44;10309873;28;20243;-75
2021/04/27 13:17:40;;;;;;;4.55;2.70;;;;;;;18.05;19.86;99870.22;10280212;28;20242;-74
2021/04/27 13:22:46;;;;;;;3.28;2.97;;;;;;;18.95;20.07;99859.13;10269983;28;20235;-75
2021/04/27 13:27:51;;;;;;;4.35;2.50;;;;;;;20.02;18.74;99841.91;10272514;28;20232;-75
2021/04/27 13:33:02;;;;;;;3.60;2.60;;;;;;;20.08;18.49;99838.38;10269675;28;20319;-75
2021/04/27 13:38:06;;;;;;;3.25;2.35;;;;;;;19.91;19.41;99831.53;10276527;28;20292;-75
2021/04/27 13:43:15;;;;;;;3.35;2.83;;;;;;;20.27;18.38;99822.34;10307541;28;20238;-75
2021/04/27 13:48:19;;;;;;;7.55;2.95;;;;;;;20.53;18.05;99814.28;10273486;28;20757;-74
2021/04/27 13:53:22;;;;;;;3.83;2.78;;;;;;;20.16;19.05;99809.25;10292825;28;20242;-75
2021/04/27 13:58:25;;;;;;;2.92;2.50;;;;;;;20.94;18.59;99807.09;10307695;28;20329;-75
2021/04/27 14:03:27;;;;;;;3.60;2.65;;;;;;;21.06;17.30;99808.19;10307228;28;20239;-75
2021/04/27 14:08:30;;;;;;;4.00;2.30;;;;;;;21.37;18.43;99793.13;10289819;28;20309;-76
2021/04/27 14:13:32;;;;;;;3.05;2.50;;;;;;;21.41;17.94;99784.28;10309433;28;20239;-74
2021/04/27 14:18:34;;;;;;;4.45;2.72;;;;;;;20.69;18.82;99785.81;10303499;28;20243;-76
2021/04/27 14:23:36;;;;;;;4.07;2.33;;;;;;;21.11;18.09;99783.00;10228758;28;20253;-75
2021/04/27 14:28:39;;;;;;;5.68;2.50;;;;;;;19.62;19.01;99768.03;10223853;28;20249;-74
2021/04/27 14:33:41;;;;;;;3.17;2.13;;;;;;;19.53;19.75;99766.47;10221071;28;20230;-75
2021/04/27 14:38:43;;;;;;;4.78;2.92;;;;;;;19.84;18.97;99773.44;10221108;28;20340;-74
2021/04/27 14:43:46;;;;;;;4.18;2.50;;;;;;;19.72;19.27;99761.38;10221983;28;20260;-74
2021/04/27 14:48:48;;;;;;;7.50;3.05;;;;;;;20.07;18.91;99746.72;10153249;28;20255;-74
2021/04/27 14:53:50;;;;;;;3.80;2.47;;;;;;;19.90;19.12;99751.66;10150376;28;20244;-73
2021/04/27 14:58:53;;;;;;;4.18;2.50;;;;;;;19.53;18.99;99747.41;10143956;28;20826;-74
2021/04/27 15:03:55;;;;;;;2.70;2.22;;;;;;;19.45;19.41;99742.13;10138238;28;20241;-74
2021/04/27 15:08:57;;;;;;;4.90;2.42;;;;;;;19.86;18.45;99744.94;10143746;28;20232;-74
2021/04/27 15:14:01;;;;;;;6.03;2.80;;;;;;;19.78;18.66;99744.25;10149868;28;20568;-74
2021/04/27 15:19:03;;;;;;;4.88;2.60;;;;;;;20.35;17.53;99734.94;10178303;28;20246;-74
2021/04/27 15:24:07;;;;;;;3.20;2.90;;;;;;;20.29;17.68;99735.69;10182036;28;20732;-74
2021/04/27 15:29:11;;;;;;;4.05;2.67;;;;;;;20.06;18.53;99725.13;10183315;28;21533;-73
2021/04/27 15:34:13;;;;;;;5.80;2.90;;;;;;;20.04;18.35;99724.47;10159744;28;20231;-74
2021/04/27 15:39:15;;;;;;;6.00;3.08;;;;;;;20.02;18.46;99711.06;10165110;28;20262;-74
2021/04/27 15:44:18;;;;;;;4.65;2.80;;;;;;;19.93;18.53;99714.16;10139753;28;20795;-74
2021/04/27 15:49:20;;;;;;;8.52;2.70;;;;;;;19.68;18.64;99699.13;10139371;28;20246;-73
2021/04/27 15:54:22;;;;;;;4.15;2.83;;;;;;;19.24;19.20;99704.88;10139770;28;20736;-73
2021/04/27 15:59:25;;;;;;;4.22;3.00;;;;;;;19.76;18.92;99700.84;10167041;28;20236;-74
2021/04/27 16:04:27;;;;;;;3.83;2.85;;;;;;;19.91;18.67;99697.97;10267275;28;20876;-74
2021/04/27 16:09:29;;;;;;;3.65;2.95;;;;;;;19.56;18.73;99683.56;10266395;28;20786;-74
2021/04/27 16:14:33;;;;;;;4.53;2.85;;;;;;;19.63;18.73;99687.97;10290899;28;20825;-74
2021/04/27 16:19:36;;;;;;;3.20;2.90;;;;;;;19.44;19.22;99673.19;10318821;28;20235;-73
2021/04/27 16:24:38;;;;;;;4.50;3.38;;;;;;;18.44;19.33;99686.94;10273729;28;20938;-74
2021/04/27 16:29:41;;;;;;;3.92;3.17;;;;;;;17.95;20.21;99674.00;10272444;28;20243;-74
2021/04/27 16:34:45;;;;;;;3.92;2.80;;;;;;;17.75;20.39;99673.72;10272958;28;20617;-74
2021/04/27 16:39:47;;;;;;;4.45;2.80;;;;;;;17.84;20.41;99659.84;10280473;28;20259;-75
2021/04/27 16:44:50;;;;;;;3.58;2.83;;;;;;;16.79;20.82;99662.63;10269367;28;20768;-74
2021/04/27 16:49:52;;;;;;;3.42;3.10;;;;;;;16.77;21.28;99653.81;10270590;28;20254;-73
2021/04/27 16:54:54;;;;;;;4.88;3.13;;;;;;;17.10;20.91;99661.66;10251965;28;20243;-74
2021/04/27 16:59:57;;;;;;;4.90;3.17;;;;;;;16.61;22.06;99664.81;10231262;28;21511;-74
2021/04/27 17:04:59;;;;;;;5.95;3.40;;;;;;;16.12;22.40;99661.34;10230516;28;20244;-74
2021/04/27 17:10:01;;;;;;;5.78;3.08;;;;;;;16.64;21.45;99650.88;10239965;28;20252;-74
2021/04/27 17:15:06;;;;;;;4.65;3.00;;;;;;;18.57;20.05;99655.28;10258323;28;20227;-74
2021/04/27 17:20:08;;;;;;;4.93;3.40;;;;;;;19.38;20.56;99654.06;10310429;28;20238;-75
2021/04/27 17:25:12;;;;;;;4.50;3.17;;;;;;;21.38;18.12;99661.78;10308124;28;20334;-74
2021/04/27 17:30:17;;;;;;;4.20;3.17;;;;;;;19.96;19.00;99654.59;10309365;28;20239;-75
2021/04/27 17:35:19;;;;;;;5.85;3.13;;;;;;;20.28;18.90;99650.31;10309591;28;20874;-74
2021/04/27 17:40:21;;;;;;;5.03;2.90;;;;;;;20.84;18.03;99651.91;10309078;28;20747;-74
2021/04/27 17:45:24;;;;;;;4.90;3.05;;;;;;;18.77;19.72;99639.13;10310010;28;20665;-75
2021/04/27 17:50:26;;;;;;;4.43;3.40;;;;;;;16.57;21.94;99650.78;10307948;28;20239;-74
2021/04/27 17:55:28;;;;;;;5.63;2.92;;;;;;;15.35;23.33;99646.78;10298525;28;20231;-74
2021/04/27 18:00:31;;;;;;;4.18;2.60;;;;;;;14.74;24.25;99647.19;10268050;28;20297;-74
2021/04/27 18:05:33;;;;;;;5.68;3.20;;;;;;;14.52;24.99;99643.28;10267467;28;20247;-74
2021/04/27 18:10:35;;;;;;;4.47;3.33;;;;;;;13.78;25.79;99657.63;10266684;28;20243;-74
2021/04/27 18:15:38;;;;;;;2.95;2.72;;;;;;;13.22;26.81;99658.00;10284601;28;20295;-74
2021/04/27 18:20:41;;;;;;;4.93;3.30;;;;;;;12.85;27.64;99658.22;10212144;28;20249;-74
2021/04/27 18:25:43;;;;;;;3.78;3.10;;;;;;;12.58;28.47;99662.72;10162958;28;20236;-74
2021/04/27 18:30:46;;;;;;;6.13;3.75;;;;;;;12.36;28.93;99653.25;10162028;28;20246;-74
2021/04/27 18:35:48;;;;;;;6.07;4.13;;;;;;;12.24;29.42;99661.69;10146361;28;20236;-74
2021/04/27 18:40:50;;;;;;;4.63;3.30;;;;;;;12.01;29.85;99654.03;10142007;28;20240;-74
2021/04/27 18:45:54;;;;;;;5.88;3.40;;;;;;;11.83;30.64;99658.56;10165849;28;20235;-74
2021/04/27 18:50:56;;;;;;;6.80;4.10;;;;;;;11.67;30.87;99657.34;10163852;28;22027;-74
2021/04/27 18:55:58;;;;;;;5.60;3.60;;;;;;;11.49;31.23;99659.13;10162270;28;20227;-74
2021/04/27 19:01:01;;;;;;;8.55;4.30;;;;;;;11.27;31.65;99663.00;10178082;28;20262;-74
2021/04/27 19:06:04;;;;;;;8.02;4.00;;;;;;;11.19;31.89;99668.28;10183643;28;20242;-74
2021/04/27 19:11:06;;;;;;;6.55;4.30;;;;;;;11.02;32.17;99670.69;10184672;28;20257;-74
2021/04/27 19:16:11;;;;;;;5.72;4.15;;;;;;;10.86;32.17;99678.53;10174566;28;20231;-74
2021/04/27 19:21:18;;;;;;;6.20;3.75;;;;;;;10.79;32.33;99672.84;10145907;28;20368;-74
2021/04/27 19:26:20;;;;;;;6.60;3.95;;;;;;;10.65;32.88;99675.16;10150829;28;21442;-73
2021/04/27 19:31:23;;;;;;;5.00;3.42;;;;;;;10.49;32.98;99675.69;10147961;28;20245;-73
2021/04/27 19:36:25;;;;;;;8.38;4.22;;;;;;;10.39;33.14;99681.06;10142610;28;20248;-74
2021/04/27 19:41:27;;;;;;;5.43;3.60;;;;;;;10.27;32.92;99685.72;10137025;28;21066;-73
2021/04/27 19:46:30;;;;;;;6.18;4.03;;;;;;;10.18;33.14;99675.81;10147773;28;20249;-73
2021/04/27 19:51:32;;;;;;;6.65;4.25;;;;;;;10.06;33.51;99682.28;10152301;28;20262;-73
2021/04/27 19:56:34;;;;;;;5.75;3.60;;;;;;;9.93;33.97;99686.09;10144249;28;20236;-76
2021/04/27 20:01:37;;;;;;;6.38;4.20;;;;;;;9.77;33.88;99674.16;10155302;28;20611;-74
2021/04/27 20:06:39;;;;;;;9.40;4.15;;;;;;;9.74;33.89;99677.94;10187273;28;20254;-74
2021/04/27 20:11:41;;;;;;;8.18;4.35;;;;;;;9.65;34.03;99673.38;10181369;28;20240;-75
2021/04/27 20:16:44;;;;;;;7.38;4.07;;;;;;;9.55;34.29;99664.47;10158051;28;20247;-74
2021/04/27 20:21:46;;;;;;;5.85;3.45;;;;;;;9.43;34.32;99658.34;10150394;28;20244;-74
2021/04/27 20:26:48;;;;;;;5.93;3.90;;;;;;;9.36;34.53;99666.06;10149208;28;20244;-74
2021/04/27 20:31:51;;;;;;;4.90;3.60;;;;;;;9.32;34.38;99663.78;10143174;28;20255;-73
2021/04/27 20:36:53;;;;;;;7.45;3.65;;;;;;;9.26;34.32;99652.63;10174894;28;20227;-72
2021/04/27 20:41:56;;;;;;;8.85;3.75;;;;;;;9.22;34.36;99661.09;10141831;28;20249;-74
2021/04/27 20:46:59;;;;;;;6.18;3.80;;;;;;;9.15;34.88;99659.91;10154065;28;20250;-74
2021/04/27 20:52:03;;;;;;;7.75;3.70;;;;;;;9.04;34.85;99656.31;10156444;28;20313;-74
2021/04/27 20:57:06;;;;;;;4.83;3.63;;;;;;;8.99;34.48;99646.97;10145572;28;20244;-73
2021/04/27 21:02:09;;;;;;;5.63;3.53;;;;;;;9.03;34.53;99643.06;10174236;28;20244;-75
2021/04/27 21:07:11;;;;;;;9.98;3.85;;;;;;;9.00;34.52;99652.22;10169310;28;20263;-74
2021/04/27 21:12:13;;;;;;;5.22;3.45;;;;;;;8.99;34.44;99655.00;10167556;28;20243;-73
2021/04/27 21:17:16;;;;;;;5.43;3.80;;;;;;;8.92;34.71;99648.50;10163279;28;20245;-73
2021/04/27 21:22:18;;;;;;;5.25;3.80;;;;;;;8.86;34.82;99655.22;10167787;28;20816;-74
2021/04/27 21:27:20;;;;;;;4.85;3.10;;;;;;;8.79;34.90;99644.19;10173533;28;20246;-74
2021/04/27 21:32:23;;;;;;;6.35;4.18;;;;;;;8.70;35.01;99641.44;10186671;28;20637;-74
2021/04/27 21:37:25;;;;;;;4.32;3.30;;;;;;;8.65;35.19;99638.31;10184034;28;20586;-73
2021/04/27 21:42:27;;;;;;;7.38;3.60;;;;;;;8.59;35.45;99643.22;10169008;28;20277;-74
2021/04/27 21:47:30;;;;;;;7.13;4.30;;;;;;;8.55;35.36;99640.91;10185955;28;20231;-74
2021/04/27 21:52:32;;;;;;;7.72;4.63;;;;;;;8.51;35.69;99645.69;10186395;28;20238;-73
2021/04/27 21:57:35;;;;;;;5.50;4.03;;;;;;;8.42;35.90;99648.22;10183072;28;20252;-74
2021/04/27 22:02:38;;;;;;;5.93;3.78;;;;;;;8.40;36.06;99645.69;10185519;28;20242;-75
2021/04/27 22:07:40;;;;;;;6.53;3.88;;;;;;;8.39;36.03;99652.00;10183229;28;20246;-73
2021/04/27 22:12:42;;;;;;;5.85;3.70;;;;;;;8.31;36.13;99654.47;10181092;28;20231;-74
2021/04/27 22:17:45;;;;;;;3.78;3.35;;;;;;;8.09;37.02;99652.72;10180588;28;20743;-74
2021/04/27 22:22:48;;;;;;;4.28;3.13;;;;;;;7.60;37.39;99657.59;10180563;28;20253;-73
2021/04/27 22:27:51;;;;;;;4.97;3.53;;;;;;;7.40;37.99;99655.63;10183926;28;20238;-74
2021/04/27 22:32:54;;;;;;;6.00;3.85;;;;;;;7.32;38.43;99645.53;10186119;28;20239;-74
2021/04/27 22:37:58;;;;;;;6.75;4.10;;;;;;;7.30;38.59;99649.34;10183391;28;20239;-73
2021/04/27 22:43:01;;;;;;;6.65;3.72;;;;;;;7.16;38.08;99650.41;10164970;28;20288;-74
2021/04/27 22:48:06;;;;;;;6.15;3.90;;;;;;;7.17;37.82;99650.28;10163042;28;21829;-73
2021/04/27 22:53:10;;;;;;;5.22;3.70;;;;;;;7.19;38.05;99642.16;10179344;28;20389;-74
2021/04/27 22:58:12;;;;;;;6.28;3.88;;;;;;;7.06;38.17;99648.47;10180572;28;20627;-73
2021/04/27 23:03:15;;;;;;;5.47;3.85;;;;;;;6.97;38.31;99640.34;10183114;28;20246;-74
2021/04/27 23:08:18;;;;;;;7.28;4.10;;;;;;;7.04;37.92;99642.38;10182747;28;20269;-74
2021/04/27 23:13:20;;;;;;;7.35;3.75;;;;;;;7.11;37.67;99639.25;10184386;28;20285;-73
2021/04/27 23:18:22;;;;;;;4.97;3.78;;;;;;;7.14;37.76;99636.34;10190540;28;20248;-73
2021/04/27 23:23:24;;;;;;;4.18;3.20;;;;;;;6.99;38.28;99630.34;10189100;28;20244;-73
2021/04/27 23:28:27;;;;;;;6.60;4.00;;;;;;;7.01;38.53;99631.94;10194578;28;20326;-73
2021/04/27 23:33:30;;;;;;;7.63;4.00;;;;;;;6.97;38.88;99625.16;10192198;28;20245;-74